createdAt,value
2023-03-05T00:02:21.514Z,15.60
2023-03-05T00:04:48.395Z,13.10
2023-03-05T00:07:14.955Z,16.60
2023-03-05T00:09:41.793Z,13.80
2023-03-05T00:12:08.678Z,14.30
2023-03-05T00:14:35.229Z,16.00
2023-03-05T00:17:01.882Z,14.90
2023-03-05T00:19:28.806Z,16.70
2023-03-05T00:21:55.605Z,15.20
2023-03-05T00:24:22.599Z,15.40
2023-03-05T00:26:49.605Z,15.30
2023-03-05T00:29:21.138Z,16.80
2023-03-05T00:31:48.660Z,16.30
2023-03-05T00:34:18.696Z,18.80
2023-03-05T00:36:48.863Z,15.90
2023-03-05T00:39:18.073Z,15.10
2023-03-05T00:41:45.354Z,14.20
2023-03-05T00:44:12.275Z,18.40
2023-03-05T00:46:39.966Z,15.40
2023-03-05T00:49:07.216Z,14.10
2023-03-05T00:51:33.861Z,15.90
2023-03-05T00:54:02.062Z,14.40
2023-03-05T00:56:29.031Z,18.50
2023-03-05T00:58:56.189Z,17.40
2023-03-05T01:01:23.422Z,31.40
2023-03-05T01:03:50.628Z,21.40
2023-03-05T01:06:17.688Z,19.30
2023-03-05T01:08:45.245Z,15.70
2023-03-05T01:11:12.236Z,17.10
2023-03-05T01:13:41.835Z,16.40
2023-03-05T01:16:08.878Z,15.00
2023-03-05T01:18:37.321Z,15.90
2023-03-05T01:21:04.184Z,14.40
2023-03-05T01:23:31.827Z,16.80
2023-03-05T01:25:58.963Z,19.00
2023-03-05T01:28:26.576Z,14.90
2023-03-05T01:30:53.497Z,16.60
2023-03-05T01:33:20.142Z,13.50
2023-03-05T01:35:48.217Z,15.10
2023-03-05T01:38:16.110Z,17.60
2023-03-05T01:40:43.261Z,16.40
2023-03-05T01:43:12.922Z,15.80
2023-03-05T01:46:18.710Z,17.00
2023-03-05T01:48:49.275Z,12.70
2023-03-05T01:51:18.684Z,13.50
2023-03-05T01:53:46.769Z,14.60
2023-03-05T01:56:15.160Z,13.60
2023-03-05T01:58:43.333Z,19.50
2023-03-05T02:01:10.297Z,14.20
2023-03-05T02:03:37.614Z,23.20
2023-03-05T02:06:04.570Z,15.80
2023-03-05T02:08:31.925Z,12.40
2023-03-05T02:10:59.814Z,14.70
2023-03-05T02:13:31.109Z,15.40
2023-03-05T02:15:59.723Z,17.00
2023-03-05T02:18:26.755Z,14.80
2023-03-05T02:20:56.483Z,17.30
2023-03-05T02:23:29.573Z,18.80
2023-03-05T02:25:56.284Z,17.90
2023-03-05T02:28:29.879Z,15.70
2023-03-05T02:30:56.962Z,15.40
2023-03-05T02:33:23.988Z,15.60
2023-03-05T02:35:51.305Z,17.00
2023-03-05T02:38:20.810Z,14.60
2023-03-05T02:40:47.661Z,14.00
2023-03-05T02:43:14.334Z,16.90
2023-03-05T02:45:41.483Z,14.90
2023-03-05T02:48:08.417Z,14.10
2023-03-05T02:50:36.216Z,14.50
2023-03-05T02:53:03.184Z,12.50
2023-03-05T02:55:29.807Z,11.20
2023-03-05T02:57:56.380Z,12.00
2023-03-05T03:00:23.709Z,18.00
2023-03-05T03:02:50.393Z,13.20
2023-03-05T03:05:17.493Z,14.10
2023-03-05T03:07:44.417Z,13.70
2023-03-05T03:10:11.472Z,15.30
2023-03-05T03:12:42.414Z,10.40
2023-03-05T03:15:11.902Z,11.50
2023-03-05T03:17:38.645Z,15.60
2023-03-05T03:20:08.247Z,12.80
2023-03-05T03:22:35.109Z,17.00
2023-03-05T03:25:04.082Z,14.40
2023-03-05T03:27:30.757Z,13.40
2023-03-05T03:30:02.175Z,14.10
2023-03-05T03:32:29.024Z,10.20
2023-03-05T03:34:58.620Z,11.20
2023-03-05T03:37:29.344Z,12.30
2023-03-05T03:39:56.193Z,10.90
2023-03-05T03:42:24.026Z,10.70
2023-03-05T03:44:51.214Z,14.00
2023-03-05T03:47:18.871Z,15.80
2023-03-05T03:49:45.558Z,12.20
2023-03-05T03:52:13.498Z,14.00
2023-03-05T03:54:40.426Z,13.90
2023-03-05T03:57:07.769Z,11.10
2023-03-05T03:59:35.091Z,15.30
2023-03-05T04:02:02.502Z,10.90
2023-03-05T04:04:38.518Z,14.10
2023-03-05T04:07:05.672Z,15.90
2023-03-05T04:09:32.258Z,12.90
2023-03-05T04:11:59.343Z,10.20
2023-03-05T04:14:26.655Z,13.30
2023-03-05T04:16:53.204Z,12.80
2023-03-05T04:19:20.372Z,12.40
2023-03-05T04:21:47.336Z,12.80
2023-03-05T04:24:14.670Z,14.60
2023-03-05T04:26:41.821Z,11.70
2023-03-05T04:29:08.876Z,16.00
2023-03-05T04:31:35.916Z,14.70
2023-03-05T04:34:02.884Z,14.60
2023-03-05T04:36:29.471Z,14.30
2023-03-05T04:38:56.378Z,16.30
2023-03-05T04:41:23.304Z,10.20
2023-03-05T04:43:49.882Z,11.70
2023-03-05T04:46:16.603Z,12.90
2023-03-05T04:48:43.482Z,13.80
2023-03-05T04:51:10.223Z,10.70
2023-03-05T04:53:36.902Z,9.80
2023-03-05T04:56:04.430Z,15.40
2023-03-05T04:58:31.074Z,9.10
2023-03-05T05:01:05.988Z,11.30
2023-03-05T05:03:33.745Z,9.80
2023-03-05T05:06:01.395Z,11.50
2023-03-05T05:08:28.829Z,9.70
2023-03-05T05:11:01.403Z,13.90
2023-03-05T05:13:28.683Z,9.40
2023-03-05T05:15:56.414Z,12.30
2023-03-05T05:18:24.049Z,10.80
2023-03-05T05:20:50.656Z,12.40
2023-03-05T05:23:18.154Z,11.50
2023-03-05T05:25:45.177Z,10.60
2023-03-05T05:28:12.384Z,21.50
2023-03-05T05:30:38.967Z,15.40
2023-03-05T05:33:05.534Z,13.60
2023-03-05T05:35:32.352Z,17.10
2023-03-05T05:37:59.133Z,13.20
2023-03-05T05:40:25.917Z,13.50
2023-03-05T05:42:53.208Z,12.90
2023-03-05T05:45:20.038Z,11.20
2023-03-05T05:47:46.847Z,11.60
2023-03-05T05:50:14.238Z,14.10
2023-03-05T05:52:40.927Z,10.90
2023-03-05T05:55:08.305Z,13.30
2023-03-05T05:57:34.934Z,14.40
2023-03-05T06:00:03.380Z,12.80
2023-03-05T06:02:39.339Z,10.40
2023-03-05T06:05:07.127Z,10.80
2023-03-05T06:07:35.450Z,12.30
2023-03-05T06:10:02.741Z,13.00
2023-03-05T06:12:29.953Z,13.70
2023-03-05T06:14:56.962Z,10.50
2023-03-05T06:17:30.306Z,8.50
2023-03-05T06:19:58.654Z,11.50
2023-03-05T06:22:25.363Z,11.90
2023-03-05T06:24:52.222Z,10.90
2023-03-05T06:27:19.145Z,11.20
2023-03-05T06:29:45.903Z,11.90
2023-03-05T06:32:12.482Z,11.70
2023-03-05T06:34:39.174Z,13.40
2023-03-05T06:37:05.832Z,15.20
2023-03-05T06:39:32.871Z,13.70
2023-03-05T06:41:59.775Z,13.30
2023-03-05T06:44:26.696Z,11.20
2023-03-05T06:46:53.412Z,10.90
2023-03-05T06:49:20.319Z,9.30
2023-03-05T06:51:47.042Z,13.40
2023-03-05T06:54:15.575Z,11.80
2023-03-05T06:56:45.147Z,20.70
2023-03-05T06:59:14.019Z,12.40
2023-03-05T07:01:41.178Z,15.20
2023-03-05T07:04:08.505Z,13.90
2023-03-05T07:06:38.013Z,13.40
2023-03-05T07:09:06.786Z,10.20
2023-03-05T07:11:34.323Z,12.60
2023-03-05T07:14:02.411Z,11.60
2023-03-05T07:16:32.177Z,11.00
2023-03-05T07:19:02.598Z,13.00
2023-03-05T07:21:31.954Z,11.40
2023-03-05T07:24:01.854Z,12.60
2023-03-05T07:26:32.935Z,11.00
2023-03-05T07:29:00.425Z,13.50
2023-03-05T07:31:30.608Z,14.10
2023-03-05T07:33:59.384Z,17.10
2023-03-05T07:36:26.332Z,27.90
2023-03-05T07:38:53.352Z,18.50
2023-03-05T07:41:29.127Z,23.80
2023-03-05T07:43:56.046Z,21.00
2023-03-05T07:46:26.508Z,22.90
2023-03-05T07:48:54.357Z,17.00
2023-03-05T07:51:22.624Z,16.40
2023-03-05T07:53:51.083Z,15.80
2023-03-05T07:56:36.272Z,14.90
2023-03-05T07:59:10.282Z,12.70
2023-03-05T08:01:37.106Z,14.30
2023-03-05T08:04:05.104Z,9.70
2023-03-05T08:06:31.965Z,13.50
2023-03-05T08:09:00.094Z,14.30
2023-03-05T08:11:28.086Z,11.30
2023-03-05T08:13:55.714Z,13.70
2023-03-05T08:16:25.403Z,12.80
2023-03-05T08:18:56.926Z,13.80
2023-03-05T08:21:29.085Z,11.30
2023-03-05T08:23:57.294Z,13.20
2023-03-05T08:26:25.670Z,15.00
2023-03-05T08:28:52.866Z,15.10
2023-03-05T08:31:22.919Z,16.90
2023-03-05T08:33:52.023Z,12.60
2023-03-05T08:36:18.957Z,13.70
2023-03-05T08:38:48.139Z,11.90
2023-03-05T08:41:16.501Z,19.10
2023-03-05T08:43:43.413Z,16.00
2023-03-05T08:46:12.878Z,13.80
2023-03-05T08:48:39.965Z,14.50
2023-03-05T08:51:13.167Z,15.30
2023-03-05T08:53:40.417Z,15.00
2023-03-05T08:56:07.610Z,10.30
2023-03-05T08:58:34.973Z,14.10
2023-03-05T09:01:02.204Z,17.60
2023-03-05T09:03:29.165Z,19.10
2023-03-05T09:06:01.511Z,15.70
2023-03-05T09:08:29.302Z,13.00
2023-03-05T09:10:56.588Z,16.50
2023-03-05T09:13:23.412Z,12.80
2023-03-05T09:16:01.708Z,13.30
2023-03-05T09:18:29.561Z,10.40
2023-03-05T09:20:56.772Z,13.50
2023-03-05T09:23:23.684Z,14.10
2023-03-05T09:25:50.655Z,14.90
2023-03-05T09:28:17.517Z,15.90
2023-03-05T09:30:44.265Z,16.70
2023-03-05T09:33:11.006Z,18.00
2023-03-05T09:35:37.765Z,16.80
2023-03-05T09:38:04.461Z,17.60
2023-03-05T09:40:55.290Z,17.60
2023-03-05T09:43:53.036Z,16.40
2023-03-05T09:46:26.342Z,19.40
2023-03-05T09:49:31.599Z,16.80
2023-03-05T09:52:25.696Z,15.70
2023-03-05T09:54:54.730Z,22.40
2023-03-05T09:57:42.038Z,15.40
2023-03-05T10:00:33.677Z,15.90
2023-03-05T10:03:06.033Z,16.70
2023-03-05T10:05:54.370Z,19.70
2023-03-05T10:08:30.917Z,19.50
2023-03-05T10:11:02.248Z,14.60
2023-03-05T10:13:40.160Z,19.10
2023-03-05T10:16:37.025Z,16.30
2023-03-05T10:19:31.942Z,18.20
2023-03-05T10:22:15.453Z,17.10
2023-03-05T10:24:57.139Z,15.80
2023-03-05T10:27:26.699Z,15.70
2023-03-05T10:30:28.822Z,14.80
2023-03-05T10:33:15.130Z,13.10
2023-03-05T10:35:51.509Z,15.70
2023-03-05T10:38:43.773Z,17.70
2023-03-05T10:41:22.868Z,13.50
2023-03-05T10:44:35.478Z,15.10
2023-03-05T10:47:10.956Z,14.90
2023-03-05T10:49:47.804Z,15.50
2023-03-05T10:52:19.645Z,14.40
2023-03-05T10:54:46.393Z,13.20
2023-03-05T10:57:25.613Z,14.50
2023-03-05T11:00:04.811Z,14.60
2023-03-05T11:02:52.019Z,12.00
2023-03-05T11:05:37.876Z,12.00
2023-03-05T11:08:36.972Z,10.90
2023-03-05T11:11:13.229Z,10.80
2023-03-05T11:13:55.516Z,12.20
2023-03-05T11:16:25.989Z,10.10
2023-03-05T11:19:20.718Z,11.20
2023-03-05T11:22:05.108Z,10.90
2023-03-05T11:24:33.300Z,10.60
2023-03-05T11:27:00.476Z,16.70
2023-03-05T11:29:32.948Z,13.80
2023-03-05T11:32:26.303Z,10.20
2023-03-05T11:34:57.444Z,9.70
2023-03-05T11:37:26.257Z,12.00
2023-03-05T11:40:22.161Z,12.90
2023-03-05T11:42:56.323Z,11.80
2023-03-05T11:45:24.611Z,16.00
2023-03-05T11:47:53.533Z,11.20
2023-03-05T11:50:20.467Z,14.30
2023-03-05T11:53:09.085Z,11.90
2023-03-05T11:55:41.134Z,14.00
2023-03-05T11:58:27.105Z,9.30
2023-03-05T12:00:54.097Z,10.70
2023-03-05T12:03:30.360Z,14.30
2023-03-05T12:06:08.728Z,16.40
2023-03-05T12:08:40.643Z,13.10
2023-03-05T12:11:17.661Z,12.70
2023-03-05T12:14:13.188Z,14.20
2023-03-05T12:16:50.060Z,13.30
2023-03-05T12:19:20.095Z,10.90
2023-03-05T12:21:50.826Z,11.50
2023-03-05T12:24:27.348Z,14.90
2023-03-05T12:27:04.361Z,19.90
2023-03-05T12:30:01.302Z,12.00
2023-03-05T12:32:28.690Z,11.00
2023-03-05T12:35:06.587Z,11.70
2023-03-05T12:37:33.651Z,10.90
2023-03-05T12:40:11.882Z,8.50
2023-03-05T12:42:38.854Z,9.00
2023-03-05T12:45:15.809Z,15.10
2023-03-05T12:47:47.701Z,10.60
2023-03-05T12:50:27.192Z,9.90
2023-03-05T12:53:03.626Z,8.20
2023-03-05T12:55:36.464Z,9.00
2023-03-05T12:58:27.240Z,9.60
2023-03-05T13:01:16.059Z,6.80
2023-03-05T13:03:55.960Z,8.40
2023-03-05T13:06:33.590Z,8.50
2023-03-05T13:09:04.183Z,8.30
2023-03-05T13:11:34.411Z,7.00
2023-03-05T13:14:02.410Z,8.10
2023-03-05T13:16:47.748Z,17.80
2023-03-05T13:19:18.393Z,19.80
2023-03-05T13:21:45.174Z,16.30
2023-03-05T13:24:19.559Z,17.80
2023-03-05T13:26:46.200Z,19.00
2023-03-05T13:29:18.724Z,12.80
2023-03-05T13:31:47.801Z,11.70
2023-03-05T13:34:22.175Z,19.80
2023-03-05T13:36:52.086Z,25.00
2023-03-05T13:39:26.729Z,17.30
2023-03-05T13:42:24.226Z,16.80
2023-03-05T13:45:20.284Z,14.70
2023-03-05T13:48:02.749Z,16.20
2023-03-05T13:50:36.546Z,20.10
2023-03-05T13:53:18.983Z,13.60
2023-03-05T13:55:47.930Z,10.90
2023-03-05T13:58:41.409Z,15.60
2023-03-05T14:01:32.264Z,22.90
2023-03-05T14:04:07.936Z,13.70
2023-03-05T14:06:41.343Z,8.60
2023-03-05T14:09:22.607Z,25.10
2023-03-05T14:12:29.687Z,14.90
2023-03-05T14:14:58.703Z,13.50
2023-03-05T14:17:29.648Z,15.30
2023-03-05T14:20:29.782Z,15.70
2023-03-05T14:23:01.076Z,10.80
2023-03-05T14:25:38.364Z,15.20
2023-03-05T14:28:27.554Z,10.40
2023-03-05T14:30:56.854Z,19.70
2023-03-05T14:33:31.606Z,11.60
2023-03-05T14:36:01.501Z,9.40
2023-03-05T14:38:31.194Z,12.10
2023-03-05T14:40:57.829Z,10.70
2023-03-05T14:43:24.734Z,13.00
2023-03-05T14:45:51.563Z,12.50
2023-03-05T14:48:18.634Z,13.60
2023-03-05T14:50:51.673Z,11.10
2023-03-05T14:53:22.292Z,10.90
2023-03-05T14:55:53.228Z,9.30
2023-03-05T14:58:22.121Z,11.30
2023-03-05T15:00:50.962Z,9.20
2023-03-05T15:03:19.657Z,12.00
2023-03-05T15:05:49.998Z,16.10
2023-03-05T15:08:20.189Z,17.30
2023-03-05T15:10:47.510Z,26.20
2023-03-05T15:13:15.251Z,21.40
2023-03-05T15:15:42.779Z,14.40
2023-03-05T15:18:14.486Z,17.40
2023-03-05T15:20:41.618Z,17.70
2023-03-05T15:23:08.702Z,15.10
2023-03-05T15:25:35.574Z,20.40
2023-03-05T15:28:02.135Z,18.80
2023-03-05T15:30:32.857Z,17.30
2023-03-05T15:33:06.800Z,15.80
2023-03-05T15:35:33.691Z,13.50
2023-03-05T15:38:00.411Z,13.80
2023-03-05T15:40:28.190Z,15.50
2023-03-05T15:42:55.989Z,14.30
2023-03-05T15:45:22.660Z,18.90
2023-03-05T15:47:51.721Z,17.20
2023-03-05T15:50:22.424Z,14.90
2023-03-05T15:52:49.951Z,14.60
2023-03-05T15:55:18.057Z,12.60
2023-03-05T15:57:47.765Z,20.90
2023-03-05T16:00:16.592Z,13.80
2023-03-05T16:02:43.555Z,17.90
2023-03-05T16:05:10.586Z,14.10
2023-03-05T16:07:41.602Z,15.30
2023-03-05T16:10:13.046Z,14.40
2023-03-05T16:12:42.384Z,14.80
2023-03-05T16:15:17.195Z,15.20
2023-03-05T16:17:46.855Z,14.50
2023-03-05T16:20:15.214Z,18.60
2023-03-05T16:22:42.885Z,17.90
2023-03-05T16:25:09.977Z,17.30
2023-03-05T16:27:37.034Z,18.00
2023-03-05T16:30:05.271Z,15.10
2023-03-05T16:32:32.535Z,19.80
2023-03-05T16:34:59.456Z,18.30
2023-03-05T16:37:26.264Z,21.40
2023-03-05T16:39:52.862Z,26.50
2023-03-05T16:42:19.673Z,18.10
2023-03-05T16:44:47.111Z,17.50
2023-03-05T16:47:13.774Z,18.70
2023-03-05T16:49:41.012Z,18.90
2023-03-05T16:52:19.724Z,21.20
2023-03-05T16:54:48.001Z,22.00
2023-03-05T16:57:15.171Z,23.70
2023-03-05T16:59:42.906Z,24.00
2023-03-05T17:02:12.436Z,19.90
2023-03-05T17:04:39.586Z,29.50
2023-03-05T17:07:07.269Z,26.80
2023-03-05T17:09:34.401Z,28.70
2023-03-05T17:12:01.187Z,30.90
2023-03-05T17:14:28.105Z,33.20
2023-03-05T17:16:55.214Z,34.00
2023-03-05T17:20:12.462Z,33.80
2023-03-05T17:22:46.576Z,31.40
2023-03-05T17:25:17.581Z,33.60
2023-03-05T17:27:47.017Z,33.30
2023-03-05T17:30:20.687Z,32.00
2023-03-05T17:32:53.333Z,30.00
2023-03-05T17:35:23.229Z,31.30
2023-03-05T17:37:54.753Z,25.90
2023-03-05T17:40:23.276Z,30.10
2023-03-05T17:42:54.914Z,25.60
2023-03-05T17:45:21.565Z,30.40
2023-03-05T17:47:48.782Z,28.70
2023-03-05T17:50:15.964Z,32.00
2023-03-05T17:52:42.885Z,27.30
2023-03-05T17:55:14.507Z,33.10
2023-03-05T17:57:42.726Z,33.20
2023-03-05T18:00:13.644Z,46.70
2023-03-05T18:02:41.180Z,37.00
2023-03-05T18:05:39.880Z,31.30
2023-03-05T18:08:56.282Z,31.70
2023-03-05T18:11:23.373Z,37.90
2023-03-05T18:13:50.378Z,37.60
2023-03-05T18:16:17.939Z,37.50
2023-03-05T18:23:00.324Z,44.10
2023-03-05T18:25:59.530Z,42.10
2023-03-05T18:28:26.624Z,40.20
2023-03-05T18:30:53.720Z,43.40
2023-03-05T18:33:23.783Z,45.10
2023-03-05T18:35:51.783Z,37.90
2023-03-05T18:38:23.733Z,35.20
2023-03-05T18:40:51.682Z,43.50
2023-03-05T18:43:20.745Z,40.40
2023-03-05T18:45:49.478Z,36.20
2023-03-05T18:48:16.605Z,44.20
2023-03-05T18:50:44.315Z,35.50
2023-03-05T18:53:12.822Z,36.60
2023-03-05T18:55:42.295Z,41.10
2023-03-05T18:58:09.901Z,44.80
2023-03-05T19:00:36.574Z,41.00
2023-03-05T19:03:05.139Z,37.20
2023-03-05T19:05:32.188Z,39.90
2023-03-05T19:07:59.098Z,47.40
2023-03-05T19:10:26.080Z,47.20
2023-03-05T19:13:07.590Z,51.10
2023-03-05T19:15:34.365Z,44.50
2023-03-05T19:18:01.137Z,46.40
2023-03-05T19:20:28.031Z,52.40
2023-03-05T19:22:55.197Z,45.80
2023-03-05T19:25:22.524Z,46.60
2023-03-05T19:27:49.559Z,50.80
2023-03-05T19:30:16.996Z,41.40
2023-03-05T19:32:46.524Z,41.80
2023-03-05T19:35:15.853Z,46.40
2023-03-05T19:37:45.293Z,31.30
2023-03-05T19:40:13.923Z,36.90
2023-03-05T19:42:40.856Z,35.80
2023-03-05T19:45:08.160Z,30.90
2023-03-05T19:47:35.415Z,29.40
2023-03-05T19:50:04.006Z,32.60
2023-03-05T19:52:30.837Z,35.90
2023-03-05T19:54:57.676Z,31.60
2023-03-05T19:57:24.689Z,27.90
2023-03-05T19:59:54.241Z,29.30
2023-03-05T20:02:21.371Z,34.20
2023-03-05T20:04:49.146Z,30.70
2023-03-05T20:07:16.246Z,34.10
2023-03-05T20:09:43.075Z,37.20
2023-03-05T20:12:10.021Z,36.30
2023-03-05T20:14:37.559Z,34.00
2023-03-05T20:17:04.492Z,37.90
2023-03-05T20:19:31.349Z,36.30
2023-03-05T20:21:58.080Z,34.40
2023-03-05T20:24:24.862Z,39.30
2023-03-05T20:26:51.787Z,42.00
2023-03-05T20:29:18.979Z,39.80
2023-03-05T20:31:47.709Z,38.90
2023-03-05T20:34:17.318Z,37.10
2023-03-05T20:36:44.027Z,34.10
2023-03-05T20:39:10.989Z,38.30
2023-03-05T20:41:39.589Z,35.40
2023-03-05T20:44:07.822Z,38.10
2023-03-05T20:46:38.817Z,37.30
2023-03-05T20:49:05.631Z,34.40
2023-03-05T20:51:35.367Z,32.50
2023-03-05T20:54:08.477Z,32.80
2023-03-05T20:56:36.133Z,37.10
2023-03-05T20:59:05.728Z,34.80
2023-03-05T21:01:34.412Z,38.70
2023-03-05T21:04:02.322Z,36.80
2023-03-05T21:06:31.084Z,36.90
2023-03-05T21:08:58.726Z,37.50
2023-03-05T21:11:26.047Z,38.20
2023-03-05T21:13:53.202Z,38.70
2023-03-05T21:16:23.316Z,39.60
2023-03-05T21:18:50.724Z,45.60
2023-03-05T21:21:19.246Z,38.10
2023-03-05T21:23:46.629Z,39.70
2023-03-05T21:26:14.451Z,40.70
2023-03-05T21:28:42.468Z,44.70
2023-03-05T21:31:14.796Z,35.40
2023-03-05T21:33:42.063Z,39.00
2023-03-05T21:36:09.736Z,31.30
2023-03-05T21:38:36.587Z,34.00
2023-03-05T21:41:04.450Z,35.90
2023-03-05T21:43:31.459Z,39.10
2023-03-05T21:46:01.000Z,40.50
2023-03-05T21:48:28.582Z,35.30
2023-03-05T21:50:56.621Z,40.00
2023-03-05T21:53:24.030Z,39.70
2023-03-05T21:56:10.090Z,39.80
2023-03-05T21:58:36.806Z,38.40
2023-03-05T22:01:04.210Z,30.50
2023-03-05T22:03:31.786Z,38.60
2023-03-05T22:05:58.788Z,42.20
2023-03-05T22:08:25.768Z,36.80
2023-03-05T22:10:52.412Z,39.10
2023-03-05T22:13:20.177Z,40.70
2023-03-05T22:15:48.936Z,38.20
2023-03-05T22:18:18.697Z,31.20
2023-03-05T22:20:45.562Z,39.20
2023-03-05T22:23:13.154Z,36.80
2023-03-05T22:25:40.073Z,31.80
2023-03-05T22:28:08.688Z,32.80
2023-03-05T22:30:36.455Z,35.20
2023-03-05T22:33:03.287Z,33.30
2023-03-05T22:35:30.183Z,30.60
2023-03-05T22:37:57.805Z,29.30
2023-03-05T22:40:24.528Z,29.40
2023-03-05T22:42:51.391Z,32.90
2023-03-05T22:45:18.753Z,36.80
2023-03-05T22:47:47.515Z,36.10
2023-03-05T22:50:15.058Z,32.20
2023-03-05T22:52:42.118Z,34.20
2023-03-05T22:55:12.047Z,39.10
2023-03-05T22:57:39.425Z,37.10
2023-03-05T23:00:10.608Z,37.70
2023-03-05T23:02:37.276Z,35.70
2023-03-05T23:05:09.455Z,44.20
2023-03-05T23:07:38.834Z,35.00
2023-03-05T23:13:04.805Z,32.00
2023-03-05T23:15:53.899Z,37.40
2023-03-05T23:18:20.902Z,30.10
2023-03-05T23:20:49.614Z,28.60
2023-03-05T23:23:17.615Z,42.60
2023-03-05T23:25:50.162Z,36.40
2023-03-05T23:28:19.058Z,35.60
2023-03-05T23:30:45.813Z,37.70
2023-03-05T23:33:18.229Z,39.10
2023-03-05T23:35:58.134Z,35.50
2023-03-05T23:38:27.512Z,39.20
2023-03-05T23:40:57.619Z,37.60
2023-03-05T23:43:26.617Z,37.40
2023-03-05T23:45:59.129Z,30.50
2023-03-05T23:48:28.186Z,32.70
2023-03-05T23:50:55.426Z,32.50
2023-03-05T23:53:28.843Z,41.70
2023-03-05T23:55:56.347Z,37.30
2023-03-05T23:58:23.518Z,36.00
